Saturday, April 30, 2016
07:09 UTC
  |  Log In   |  Register Free
Airport Search:

Skyhaven Airport
(KRCM)

Skyhaven Airport Diagram
No Airport Diagram Available

FAA data valid effective Mar 31 2016 - May 26 2016 (unless otherwise noted).

 
 
 
 
 
 
 
 
 
 
 
 
 
 
Summary: Skyhaven (RCM)

Weather Summary


METAR for KRCM is not available. Closest METAR is for KSZL
KRCM  (most recent observation was updatred at 30:06 UTC)
300655Z AUTO 11018G23KT 10SM BKN008 BKN090 13/13 A2969 RMK AO2 P0001

KSZL  (12.4 nm NW)   (most recent observation was updated at 30:06 UTC)
300658Z AUTO 11014G25KT 7SM R01/5000FT -RA SCT007 OVC065 14/14 A2967 RMK AO2 PKWND 11030/25 RAE12DZB12E17RAB17E27DZB27E36RAB36 SLP048 P0004 T01370137 $

KGLY  (26.3 nm NW)   (most recent observation was updated at 30:06 UTC)
300655Z AUTO 12014G26KT 10SM -RA FEW007 SCT034 BKN070 14/14 A2969 RMK AO2

TAF for KRCM is not available.
KSZL  (12.4 nm NW)   (most recent observation was updatred at 30:06 UTC)
AMD 300644Z 3006/0109 10012G18KT 8000 -SHRA BKN007 BKN090 510104 QNH2963INS TEMPO 3006/3012 BKN012 BECMG 3011/3012 11006KT 8000 BR OVC030 510104 QNH2961INS BECMG 3017/3018 22010G15KT 9999 NSW FEW015 QNH2962INS BECMG 0103/0104 VRB06KT 9999 FEW010 QNH2980INS TX23/3021Z TN11/3009Z AMD 300644


GlobalAir.com is loading additional information.
 Current Weather at RCM
55.0 F° (13.0 C°)
Light Rain and Windy
East winds at 32.2 mph
Pressure:
29.66 in
Humidity:
94%
Wind:
from the East at 32.2 gusting to 41.4 MPH (28 gusting to 36 KT)
Dew Point:
53.6 F° (12.0 C°)
Visibility:
10.00 mi
RCM NOAA Radar

Runway Summary

ID Dimensions Surface Instrument Approaches
01/19 75 ft x 4206 ft Asphalt, Excellent Condition RNAV (GPS) RWY 01
14/32 60 ft x 2801 ft Asphalt, Excellent Condition N/A

Communications Summary


CTAF123.00
UNICOM123.00
ATISN/A
WX AWOS-3
WHITEMAN APPROACH127.45
WHITEMAN DEPARTURE125.925
CLEARANCE DELIVERYN/A

Terminal Procedures Summary


Approaches
More Approaches
Special Minimums

Closest Alternate Airports with Instrument Procedures

KHIG - Higginsville Industrial Municipal - 21 nm NE from RCM

K3GV - East Kansas City - 27.3 nm NW from RCM

K4K3 - Lexington Municipal - 30.2 nm NW from RCM

KGLY - Clinton Memorial - 30.3 nm SE from RCM

KLRY - Lawrence Smith Memorial - 31.6 nm SW from RCM

KLXT - Lee's Summit Municipal - 32.9 nm NW from RCM

KDMO - Sedalia Memorial - 34.2 nm SE from RCM

KMHL - Marshall Memorial Municipal - 38.8 nm NE from RCM

K3EX - Excelsior Springs Memorial - 43.7 nm NW from RCM

KBUM - Butler Memorial - 44.9 nm SW from RCM

Find All Airport Services Find A Hotel Find A Rental Car Find A Golf Course Find A Restaurant $100 Hamburger



FBO's on the Field
FBO Company Facility Photos Services Transportation Aviation Fuel Prices: Prices include tax
Catering Weather Repair Courtesy Rental Type 100LL JetA JetA+ MOGAS 8087
 
UCM Aviation

Currently rated 5 by 1 person
FS:Epic
Last Updated: Mar-25
Login to update fuel prices
SS:
Contact UCM AviationMore FBO Information
 
Add another FBO Facility Photos Catering Weather Repair Courtesy Rental Type 100LL JetA JetA+ MOGAS 8087
Services Transportation Aviation Fuel Prices: Prices include tax


model-print
model-print
model-print
model-print